Flight Track Log - Related Links

Times and Time Zones

All times are in EDT time to prevent confusion due to time zone crossing. See the FSR411 flight status page for this flight to view local times or setup timezone preferences in your user account.

Time Position Orientation Groundspeed Altitude Reporting Facility
EDT Latitude Longitude Course Direction KTS MPH feet Rate Location/Type
Fri 09:23:33 AM 40.1019 -88.3650 311° West 212 244 4,100  Level Chicago Center
Fri 09:24:35 AM 40.1514 -88.4458 309° West 268 308 7,400 3,145 Climbing Chicago Center
Fri 09:25:37 AM 40.2036 -88.5269 310° West 286 329 10,600 2,806 Climbing Chicago Center
Fri 09:26:39 AM 40.2786 -88.6433 310° West 354 407 13,200 1,645 Climbing Chicago Center
Fri 09:27:41 AM 40.3472 -88.7494 310° West 377 434 14,000 387 Climbing Chicago Center
Fri 09:28:00 AM 40.3441 -88.7472 311° West  Level Estimated
Fri 09:28:43 AM 40.4178 -88.8589 310° West 384 442 14,000  Level Chicago Center
Fri 09:29:45 AM 40.4861 -88.9628 311° West 382 440 14,000  Level Chicago Center
Fri 09:30:47 AM 40.5536 -89.0694 310° West 381 438 14,000  Level Chicago Center
Fri 09:31:49 AM 40.6206 -89.1756 310° West 379 436 14,000  Level Chicago Center
Fri 09:32:51 AM 40.7008 -89.3014 310° West 376 433 14,000  Level Chicago Center
Fri 09:33:53 AM 40.7681 -89.4089 310° West 379 436 14,000  Level Chicago Center
Fri 09:34:55 AM 40.8361 -89.5161 310° West 385 443 14,000  Level Chicago Center
Fri 09:35:57 AM 40.8969 -89.6119 310° West 349 402 14,000 -48 Level Chicago Center
Fri 09:36:59 AM 40.9344 -89.7219 294° West 351 404 13,900 -629 Descending Chicago Center
Fri 09:38:01 AM 40.9275 -89.8725 267° West 347 399 12,700 -919 Descending Chicago Center
Fri 09:39:03 AM 40.9389 -89.9931 277° West 344 396 12,000 -581 Descending Chicago Center
Fri 09:40:05 AM 41.0097 -90.0708 320° Northwest 336 387 11,500 -484 Descending Chicago Center
Fri 09:41:07 AM 41.0861 -90.1422 325° Northwest 336 387 11,000 -242 Descending Chicago Center
Fri 09:42:09 AM 41.1433 -90.2286 311° West 313 360 11,000 -576 Level Chicago Center
Fri 09:43:12 AM 41.2047 -90.3297 309° West 296 341 9,800 -1,355 Descending Chicago Center
Fri 09:44:13 AM 41.2547 -90.4122 309° West 290 334 8,200 -1,756 Descending Chicago Center
Fri 09:45:15 AM 41.3056 -90.4906 311° West 283 326 6,200 -1,610 Descending Chicago Center
Fri 09:46:16 AM 41.3511 -90.5642 310° West 264 304 4,900 -1,220 Descending Chicago Center
Fri 09:47:18 AM 41.3875 -90.6306 306° West 231 266 3,700 -1,056 Descending Chicago Center
Fri 09:48:21 AM 41.4322 -90.6428 348° North 204 235 2,700 -823 Descending Chicago Center
Fri 09:49:22 AM 41.4550 -90.5967 57° Northeast 170 196 2,000 -927 Descending Chicago Center
Fri 09:50:24 AM 41.4511 -90.5386 95° East 148 170 800 -677 Descending Chicago Center
Fri 09:51:26 AM 41.4511 -90.4944 90° East 142 163 600 -194 Descending Chicago Center

Login

Don't have an account? Register now (free) for customized features, flight alerts, and more!